createdAt,value
2022-10-05T00:01:52.909Z,5.53
2022-10-05T00:04:23.006Z,6.18
2022-10-05T00:07:07.937Z,7.18
2022-10-05T00:09:35.336Z,6.60
2022-10-05T00:12:17.915Z,6.53
2022-10-05T00:14:46.827Z,5.93
2022-10-05T00:17:25.414Z,5.72
2022-10-05T00:19:54.163Z,5.30
2022-10-05T00:22:23.817Z,6.20
2022-10-05T00:24:58.546Z,6.47
2022-10-05T00:27:27.534Z,5.85
2022-10-05T00:29:58.205Z,6.03
2022-10-05T00:32:27.023Z,6.93
2022-10-05T00:34:54.225Z,6.07
2022-10-05T00:37:21.347Z,6.35
2022-10-05T00:39:49.623Z,8.88
2022-10-05T00:42:44.346Z,9.85
2022-10-05T00:45:29.918Z,9.88
2022-10-05T00:48:18.240Z,7.45
2022-10-05T00:51:14.876Z,7.97
2022-10-05T00:53:53.691Z,7.50
2022-10-05T00:56:35.919Z,7.03
2022-10-05T00:59:19.274Z,6.70
2022-10-05T01:02:01.455Z,6.60
2022-10-05T01:04:44.327Z,6.28
2022-10-05T01:07:35.559Z,5.68
2022-10-05T01:10:15.996Z,6.25
2022-10-05T01:13:14.303Z,6.75
2022-10-05T01:15:52.160Z,6.22
2022-10-05T01:18:28.123Z,7.47
2022-10-05T01:21:23.261Z,8.10
2022-10-05T01:24:24.898Z,8.57
2022-10-05T01:27:05.991Z,6.65
2022-10-05T01:29:57.109Z,7.00
2022-10-05T01:32:34.880Z,7.43
2022-10-05T01:35:04.987Z,6.93
2022-10-05T01:38:20.573Z,7.50
2022-10-05T01:40:47.794Z,7.85
2022-10-05T01:43:25.180Z,8.45
2022-10-05T01:46:14.097Z,6.35
2022-10-05T01:49:08.268Z,7.38
2022-10-05T01:51:41.542Z,6.57
2022-10-05T01:54:35.817Z,6.30
2022-10-05T01:57:21.953Z,9.77
2022-10-05T02:00:00.833Z,9.27
2022-10-05T02:02:29.360Z,7.70
2022-10-05T02:05:10.496Z,8.32
2022-10-05T02:07:44.177Z,10.02
2022-10-05T02:10:22.444Z,8.23
2022-10-05T02:12:54.127Z,6.88
2022-10-05T02:15:29.972Z,7.05
2022-10-05T02:18:02.201Z,7.90
2022-10-05T02:20:31.977Z,7.25
2022-10-05T02:23:04.310Z,6.75
2022-10-05T02:25:35.636Z,7.43
2022-10-05T02:28:27.692Z,7.30
2022-10-05T02:31:00.848Z,7.18
2022-10-05T02:33:30.187Z,7.50
2022-10-05T02:36:15.998Z,7.95
2022-10-05T02:38:56.087Z,11.63
2022-10-05T02:41:41.236Z,10.23
2022-10-05T02:44:14.269Z,11.07
2022-10-05T02:46:51.964Z,13.70
2022-10-05T02:49:37.328Z,12.15
2022-10-05T02:52:10.980Z,8.38
2022-10-05T02:55:02.678Z,7.78
2022-10-05T02:57:47.843Z,7.40
2022-10-05T03:00:25.293Z,7.13
2022-10-05T03:03:02.416Z,7.47
2022-10-05T03:05:33.937Z,6.88
2022-10-05T03:08:05.889Z,6.75
2022-10-05T03:10:46.314Z,7.50
2022-10-05T03:13:28.980Z,7.80
2022-10-05T03:16:21.433Z,7.38
2022-10-05T03:18:52.861Z,7.60
2022-10-05T03:21:42.658Z,8.68
2022-10-05T03:24:36.828Z,8.98
2022-10-05T03:27:18.622Z,8.07
2022-10-05T03:29:54.662Z,7.90
2022-10-05T03:32:48.761Z,7.60
2022-10-05T03:35:27.458Z,8.20
2022-10-05T03:38:06.846Z,7.50
2022-10-05T03:40:40.640Z,7.53
2022-10-05T03:43:44.827Z,7.82
2022-10-05T03:46:36.104Z,7.35
2022-10-05T03:49:24.820Z,8.25
2022-10-05T03:51:59.503Z,8.38
2022-10-05T03:54:32.646Z,7.32
2022-10-05T03:57:23.019Z,8.07
2022-10-05T03:59:56.867Z,7.57
2022-10-05T04:02:35.014Z,8.25
2022-10-05T04:05:13.203Z,9.45
2022-10-05T04:07:48.401Z,8.70
2022-10-05T04:10:22.342Z,9.60
2022-10-05T04:12:55.127Z,9.60
2022-10-05T04:15:34.004Z,8.73
2022-10-05T04:18:09.035Z,10.50
2022-10-05T04:20:43.401Z,8.75
2022-10-05T04:23:11.082Z,10.60
2022-10-05T04:26:02.494Z,10.65
2022-10-05T04:28:38.481Z,14.50
2022-10-05T04:31:07.455Z,14.65
2022-10-05T04:33:34.802Z,15.13
2022-10-05T04:36:24.536Z,12.07
2022-10-05T04:39:03.468Z,12.07
2022-10-05T04:41:49.191Z,11.82
2022-10-05T04:44:35.539Z,13.45
2022-10-05T04:47:22.316Z,11.35
2022-10-05T04:50:11.431Z,11.10
2022-10-05T04:52:46.554Z,11.48
2022-10-05T04:55:25.911Z,11.68
2022-10-05T04:58:00.274Z,10.48
2022-10-05T05:00:33.998Z,10.00
2022-10-05T05:03:10.018Z,10.43
2022-10-05T05:06:15.985Z,11.20
2022-10-05T05:09:07.688Z,11.57
2022-10-05T05:11:59.702Z,12.57
2022-10-05T05:15:00.981Z,11.88
2022-10-05T05:18:09.303Z,17.05
2022-10-05T05:20:51.329Z,13.27
2022-10-05T05:23:40.347Z,14.55
2022-10-05T05:26:19.537Z,12.93
2022-10-05T05:29:08.143Z,12.98
2022-10-05T05:31:49.804Z,14.05
2022-10-05T05:34:47.803Z,13.77
2022-10-05T05:37:24.820Z,13.55
2022-10-05T05:39:59.438Z,11.13
2022-10-05T05:42:37.254Z,11.15
2022-10-05T05:45:20.977Z,12.43
2022-10-05T05:47:54.106Z,12.13
2022-10-05T05:50:47.553Z,10.40
2022-10-05T05:53:23.358Z,9.88
2022-10-05T05:55:55.048Z,9.88
2022-10-05T05:58:44.391Z,8.95
2022-10-05T06:01:33.755Z,8.80
2022-10-05T06:04:19.899Z,9.68
2022-10-05T06:06:50.407Z,8.23
2022-10-05T06:09:37.509Z,8.57
2022-10-05T06:12:32.204Z,8.98
2022-10-05T06:15:04.117Z,8.70
2022-10-05T06:17:43.065Z,9.05
2022-10-05T06:20:17.153Z,10.02
2022-10-05T06:22:46.118Z,8.70
2022-10-05T06:25:37.810Z,8.70
2022-10-05T06:28:13.051Z,8.57
2022-10-05T06:30:59.023Z,8.82
2022-10-05T06:33:54.881Z,9.90
2022-10-05T06:36:40.972Z,9.52
2022-10-05T06:39:26.810Z,8.70
2022-10-05T06:42:20.389Z,9.15
2022-10-05T06:45:54.786Z,9.10
2022-10-05T06:48:53.505Z,9.35
2022-10-05T06:51:53.040Z,11.68
2022-10-05T06:54:48.728Z,11.38
2022-10-05T06:57:51.430Z,9.98
2022-10-05T07:00:24.973Z,9.77
2022-10-05T07:02:57.906Z,10.85
2022-10-05T07:05:43.907Z,9.13
2022-10-05T07:08:23.837Z,9.60
2022-10-05T07:11:01.291Z,8.63
2022-10-05T07:13:35.477Z,10.38
2022-10-05T07:16:17.498Z,9.88
2022-10-05T07:19:17.110Z,10.18
2022-10-05T07:22:14.879Z,9.43
2022-10-05T07:25:08.505Z,9.50
2022-10-05T07:27:42.491Z,8.40
2022-10-05T07:30:13.831Z,8.85
2022-10-05T07:32:50.876Z,7.90
2022-10-05T07:35:53.129Z,7.28
2022-10-05T07:38:43.021Z,6.75
2022-10-05T07:41:14.217Z,6.68
2022-10-05T07:44:02.034Z,7.18
2022-10-05T07:46:48.231Z,6.53
2022-10-05T07:49:17.461Z,6.30
2022-10-05T07:51:46.525Z,6.57
2022-10-05T07:54:13.393Z,6.60
2022-10-05T07:56:46.129Z,6.35
2022-10-05T07:59:40.382Z,5.97
2022-10-05T08:02:22.996Z,5.45
2022-10-05T08:05:00.400Z,6.20
2022-10-05T08:07:28.915Z,6.10
2022-10-05T08:10:06.296Z,6.07
2022-10-05T08:12:41.416Z,6.60
2022-10-05T08:15:15.467Z,6.10
2022-10-05T08:18:05.936Z,6.28
2022-10-05T08:20:50.227Z,6.00
2022-10-05T08:23:36.560Z,6.07
2022-10-05T08:26:18.492Z,6.82
2022-10-05T08:28:54.315Z,5.95
2022-10-05T08:31:35.430Z,5.43
2022-10-05T08:34:11.431Z,5.97
2022-10-05T08:36:51.609Z,5.80
2022-10-05T08:39:21.977Z,6.28
2022-10-05T08:41:54.885Z,4.90
2022-10-05T08:45:03.518Z,5.05
2022-10-05T08:47:49.578Z,5.15
2022-10-05T08:50:28.511Z,5.43
2022-10-05T08:53:12.420Z,5.07
2022-10-05T08:55:49.827Z,4.85
2022-10-05T08:58:32.019Z,4.78
2022-10-05T09:01:10.421Z,5.13
2022-10-05T09:04:11.014Z,4.88
2022-10-05T09:06:43.926Z,5.03
2022-10-05T09:09:19.198Z,5.93
2022-10-05T09:12:01.318Z,4.93
2022-10-05T09:14:34.359Z,5.90
2022-10-05T09:17:21.418Z,5.22
2022-10-05T09:19:54.222Z,4.38
2022-10-05T09:22:36.666Z,4.68
2022-10-05T09:25:17.183Z,4.38
2022-10-05T09:28:09.452Z,4.95
2022-10-05T09:30:56.742Z,5.47
2022-10-05T09:33:32.906Z,4.90
2022-10-05T09:36:00.473Z,4.72
2022-10-05T09:38:49.032Z,4.55
2022-10-05T09:41:40.256Z,4.63
2022-10-05T09:44:07.019Z,4.47
2022-10-05T09:47:00.788Z,4.40
2022-10-05T09:49:59.950Z,4.05
2022-10-05T09:52:51.241Z,4.20
2022-10-05T09:55:31.129Z,3.75
2022-10-05T09:58:07.917Z,3.60
2022-10-05T10:00:50.130Z,3.53
2022-10-05T10:04:08.086Z,3.53
2022-10-05T10:06:42.856Z,3.38
2022-10-05T10:09:16.193Z,4.05
2022-10-05T10:12:10.484Z,3.65
2022-10-05T10:14:52.647Z,3.33
2022-10-05T10:17:52.694Z,3.25
2022-10-05T10:20:41.011Z,2.67
2022-10-05T10:23:26.058Z,3.83
2022-10-05T10:26:06.714Z,3.15
2022-10-05T10:28:58.584Z,2.80
2022-10-05T10:31:49.561Z,3.22
2022-10-05T10:34:50.168Z,3.05
2022-10-05T10:37:42.482Z,3.33
2022-10-05T10:40:35.047Z,3.20
2022-10-05T10:43:26.580Z,3.20
2022-10-05T10:46:27.774Z,3.20
2022-10-05T10:49:07.125Z,3.22
2022-10-05T10:51:52.429Z,3.10
2022-10-05T10:54:46.875Z,3.40
2022-10-05T10:57:15.483Z,3.25
2022-10-05T11:00:11.229Z,2.70
2022-10-05T11:03:00.275Z,3.05
2022-10-05T11:06:04.690Z,3.83
2022-10-05T11:08:53.913Z,3.65
2022-10-05T11:12:00.003Z,3.38
2022-10-05T11:14:55.937Z,3.63
2022-10-05T11:17:25.361Z,3.60
2022-10-05T11:20:05.092Z,3.88
2022-10-05T11:22:44.501Z,4.05
2022-10-05T11:25:46.480Z,4.00
2022-10-05T11:28:37.983Z,3.67
2022-10-05T11:31:54.785Z,3.70
2022-10-05T11:34:42.863Z,3.53
2022-10-05T11:37:36.302Z,3.83
2022-10-05T11:40:45.077Z,3.65
2022-10-05T11:43:28.763Z,3.60
2022-10-05T11:46:05.122Z,3.20
2022-10-05T11:48:35.043Z,3.42
2022-10-05T11:51:28.833Z,3.70
2022-10-05T11:53:57.580Z,3.50
2022-10-05T11:56:32.149Z,3.80
2022-10-05T11:59:04.297Z,3.17
2022-10-05T12:01:44.647Z,3.00
2022-10-05T12:04:17.870Z,3.22
2022-10-05T12:07:00.310Z,3.22
2022-10-05T12:10:05.274Z,3.45
2022-10-05T12:12:39.553Z,3.55
2022-10-05T12:15:17.581Z,3.92
2022-10-05T12:18:08.223Z,3.45
2022-10-05T12:20:39.880Z,3.58
2022-10-05T12:23:22.228Z,3.30
2022-10-05T12:25:55.937Z,3.28
2022-10-05T12:28:32.941Z,3.72
2022-10-05T12:31:03.698Z,3.60
2022-10-05T12:33:36.161Z,3.78
2022-10-05T12:36:20.944Z,3.50
2022-10-05T12:39:03.509Z,3.72
2022-10-05T12:41:48.005Z,3.85
2022-10-05T12:44:42.127Z,4.47
2022-10-05T12:47:23.799Z,3.63
2022-10-05T12:50:04.136Z,3.85
2022-10-05T12:52:53.034Z,3.28
2022-10-05T12:55:49.454Z,3.88
2022-10-05T12:58:41.780Z,4.57
2022-10-05T13:01:08.891Z,4.25
2022-10-05T13:04:12.830Z,4.00
2022-10-05T13:06:39.814Z,4.43
2022-10-05T13:09:33.211Z,4.43
2022-10-05T13:12:07.820Z,4.05
2022-10-05T13:14:42.794Z,4.10
2022-10-05T13:17:49.461Z,4.10
2022-10-05T13:20:29.865Z,3.85
2022-10-05T13:23:05.414Z,4.30
2022-10-05T13:25:39.853Z,4.03
2022-10-05T13:28:20.778Z,4.43
2022-10-05T13:31:02.150Z,4.20
2022-10-05T13:33:45.470Z,4.32
2022-10-05T13:36:39.662Z,4.30
2022-10-05T13:39:24.939Z,4.63
2022-10-05T13:41:55.910Z,4.50
2022-10-05T13:44:22.906Z,4.32
2022-10-05T13:47:09.902Z,4.57
2022-10-05T13:49:44.141Z,4.30
2022-10-05T13:52:55.627Z,4.25
2022-10-05T13:55:43.463Z,5.57
2022-10-05T13:58:24.127Z,5.38
2022-10-05T14:00:55.006Z,6.43
2022-10-05T14:03:34.959Z,6.05
2022-10-05T14:06:13.187Z,4.97
2022-10-05T14:08:52.661Z,5.60
2022-10-05T14:11:23.677Z,4.75
2022-10-05T14:13:50.657Z,5.22
2022-10-05T14:16:23.323Z,5.30
2022-10-05T14:18:52.491Z,5.32
2022-10-05T14:21:24.820Z,8.57
2022-10-05T14:23:52.490Z,8.85
2022-10-05T14:26:25.425Z,11.00
2022-10-05T14:29:01.573Z,15.40
2022-10-05T14:31:36.870Z,11.13
2022-10-05T14:34:29.440Z,7.25
2022-10-05T14:37:22.870Z,5.85
2022-10-05T14:39:52.035Z,7.03
2022-10-05T14:42:21.662Z,9.30
2022-10-05T14:45:16.409Z,13.52
2022-10-05T14:47:52.708Z,11.35
2022-10-05T14:50:26.083Z,7.20
2022-10-05T14:53:11.346Z,6.70
2022-10-05T14:55:56.815Z,8.90
2022-10-05T14:58:48.367Z,8.85
2022-10-05T15:01:32.725Z,10.90
2022-10-05T15:04:31.950Z,7.40
2022-10-05T15:07:28.249Z,14.50
2022-10-05T15:10:07.911Z,19.25
2022-10-05T15:12:40.020Z,7.63
2022-10-05T15:15:18.495Z,8.98
2022-10-05T15:17:52.629Z,6.07
2022-10-05T15:20:37.703Z,7.80
2022-10-05T15:23:26.040Z,6.75
2022-10-05T15:25:59.027Z,8.07
2022-10-05T15:28:42.100Z,5.25
2022-10-05T15:31:21.758Z,8.65
2022-10-05T15:33:55.739Z,17.27
2022-10-05T15:36:26.509Z,9.02
2022-10-05T15:39:02.734Z,11.77
2022-10-05T15:42:00.303Z,7.68
2022-10-05T15:44:37.746Z,9.60
2022-10-05T15:47:46.330Z,8.20
2022-10-05T15:50:25.866Z,7.57
2022-10-05T15:53:06.677Z,11.88
2022-10-05T15:55:41.682Z,9.65
2022-10-05T15:58:22.751Z,12.02
2022-10-05T16:01:01.286Z,16.95
2022-10-05T16:03:46.648Z,22.17
2022-10-05T16:06:42.801Z,29.58
2022-10-05T16:09:34.287Z,18.80
2022-10-05T16:12:19.144Z,21.08
2022-10-05T16:14:58.040Z,29.80
2022-10-05T16:17:48.057Z,13.07
2022-10-05T16:20:38.522Z,17.88
2022-10-05T16:23:08.170Z,8.40
2022-10-05T16:25:50.364Z,12.93
2022-10-05T16:28:53.035Z,11.48
2022-10-05T16:31:31.894Z,17.10
2022-10-05T16:34:02.566Z,11.95
2022-10-05T16:36:44.496Z,10.25
2022-10-05T16:39:11.263Z,12.07
2022-10-05T16:41:38.529Z,13.93
2022-10-05T16:44:32.854Z,24.92
2022-10-05T16:47:12.391Z,13.38
2022-10-05T16:49:48.890Z,14.05
2022-10-05T16:52:19.283Z,14.35
2022-10-05T16:54:50.383Z,17.65
2022-10-05T16:57:21.172Z,15.02
2022-10-05T17:00:03.715Z,14.98
2022-10-05T17:02:46.019Z,15.63
2022-10-05T17:05:15.592Z,13.90
2022-10-05T17:08:01.093Z,11.20
2022-10-05T17:10:37.222Z,21.10
2022-10-05T17:13:20.520Z,14.07
2022-10-05T17:16:01.257Z,25.98
2022-10-05T17:19:06.413Z,17.08
2022-10-05T17:21:44.469Z,23.15
2022-10-05T17:24:11.460Z,18.73
2022-10-05T17:26:55.606Z,15.80
2022-10-05T17:29:24.918Z,20.02
2022-10-05T17:32:06.700Z,9.90
2022-10-05T17:34:34.894Z,18.17
2022-10-05T17:37:35.481Z,25.83
2022-10-05T17:40:35.080Z,27.08
2022-10-05T17:43:17.156Z,24.10
2022-10-05T17:45:44.491Z,10.40
2022-10-05T17:48:12.458Z,10.13
2022-10-05T17:51:00.744Z,13.52
2022-10-05T17:53:52.422Z,29.10
2022-10-05T17:56:23.220Z,26.73
2022-10-05T17:58:54.562Z,18.23
2022-10-05T18:01:38.463Z,11.15
2022-10-05T18:04:25.987Z,16.98
2022-10-05T18:07:02.354Z,13.70
2022-10-05T18:09:33.836Z,10.95
2022-10-05T18:12:09.806Z,40.63
2022-10-05T18:15:07.652Z,25.98
2022-10-05T18:17:51.387Z,21.88
2022-10-05T18:20:42.863Z,16.63
2022-10-05T18:23:09.950Z,12.10
2022-10-05T18:25:44.786Z,13.02
2022-10-05T18:28:39.299Z,31.23
2022-10-05T18:31:28.961Z,14.18
2022-10-05T18:34:13.246Z,13.02
2022-10-05T18:36:42.867Z,12.25
2022-10-05T18:39:31.760Z,12.68
2022-10-05T18:42:13.393Z,22.17
2022-10-05T18:44:50.290Z,33.80
2022-10-05T18:47:29.508Z,18.17
2022-10-05T18:50:15.105Z,10.23
2022-10-05T18:52:45.168Z,12.05
2022-10-05T18:55:33.350Z,13.95
2022-10-05T18:58:15.350Z,18.23
2022-10-05T19:00:52.390Z,14.40
2022-10-05T19:03:58.463Z,12.75
2022-10-05T19:06:28.663Z,19.65
2022-10-05T19:09:21.016Z,15.20
2022-10-05T19:11:53.716Z,10.95
2022-10-05T19:14:33.171Z,11.82
2022-10-05T19:17:25.076Z,9.48
2022-10-05T19:20:25.646Z,13.05
2022-10-05T19:23:14.303Z,13.35
2022-10-05T19:25:48.293Z,12.00
2022-10-05T19:28:37.268Z,10.70
2022-10-05T19:31:32.261Z,14.15
2022-10-05T19:34:49.746Z,14.30
2022-10-05T19:37:43.365Z,19.15
2022-10-05T19:40:18.030Z,9.60
2022-10-05T19:43:03.452Z,10.30
2022-10-05T19:45:34.003Z,12.50
2022-10-05T19:48:11.306Z,15.95
2022-10-05T19:50:38.480Z,14.93
2022-10-05T19:53:11.432Z,12.23
2022-10-05T19:55:43.638Z,15.52
2022-10-05T19:58:17.801Z,11.02
2022-10-05T20:00:52.963Z,11.30
2022-10-05T20:03:31.385Z,10.82
2022-10-05T20:06:03.367Z,11.32
2022-10-05T20:08:51.635Z,10.95
2022-10-05T20:11:22.093Z,15.40
2022-10-05T20:13:52.043Z,9.90
2022-10-05T20:19:47.929Z,8.88
2022-10-05T20:22:35.715Z,11.07
2022-10-05T20:25:06.725Z,10.30
2022-10-05T20:27:48.088Z,10.35
2022-10-05T20:30:18.505Z,9.48
2022-10-05T20:32:52.866Z,19.80
2022-10-05T20:35:25.261Z,12.00
2022-10-05T20:37:52.176Z,31.67
2022-10-05T20:40:20.332Z,15.35
2022-10-05T20:42:47.789Z,24.38
2022-10-05T20:45:14.840Z,17.38
2022-10-05T20:47:42.276Z,14.02
2022-10-05T20:50:10.524Z,11.63
2022-10-05T20:52:38.386Z,12.48
2022-10-05T20:55:08.805Z,11.57
2022-10-05T20:57:38.550Z,14.73
2022-10-05T21:00:06.426Z,12.60
2022-10-05T21:02:33.367Z,11.68
2022-10-05T21:05:00.665Z,12.88
2022-10-05T21:07:27.529Z,10.88
2022-10-05T21:09:55.743Z,12.98
2022-10-05T21:12:22.756Z,7.63
2022-10-05T21:14:49.754Z,15.10
2022-10-05T21:17:16.604Z,14.35
2022-10-05T21:19:43.685Z,15.70
2022-10-05T21:22:10.612Z,11.05
2022-10-05T21:24:39.312Z,11.52
2022-10-05T21:27:07.149Z,11.02
2022-10-05T21:29:35.363Z,10.63
2022-10-05T21:32:02.364Z,9.60
2022-10-05T21:34:30.032Z,8.73
2022-10-05T21:36:56.861Z,9.07
2022-10-05T21:39:24.735Z,8.88
2022-10-05T21:41:52.035Z,8.98
2022-10-05T21:44:19.050Z,8.50
2022-10-05T21:46:46.774Z,8.20
2022-10-05T21:49:17.572Z,7.78
2022-10-05T21:51:47.296Z,8.93
2022-10-05T21:54:17.931Z,9.45
2022-10-05T21:56:47.764Z,9.02
2022-10-05T21:59:17.214Z,8.18
2022-10-05T22:01:44.413Z,8.52
2022-10-05T22:04:11.203Z,7.45
2022-10-05T22:06:38.131Z,7.43
2022-10-05T22:09:05.204Z,7.55
2022-10-05T22:11:32.708Z,7.72
2022-10-05T22:14:02.808Z,8.18
2022-10-05T22:16:33.328Z,8.23
2022-10-05T22:19:05.089Z,8.60
2022-10-05T22:21:37.803Z,7.18
2022-10-05T22:24:05.140Z,6.75
2022-10-05T22:26:32.494Z,6.68
2022-10-05T22:29:01.746Z,8.65
2022-10-05T22:31:28.741Z,7.50
2022-10-05T22:33:55.609Z,8.40
2022-10-05T22:36:22.817Z,8.95
2022-10-05T22:38:50.021Z,13.93
2022-10-05T22:41:18.445Z,8.90
2022-10-05T22:43:50.081Z,7.32
2022-10-05T22:46:17.419Z,7.22
2022-10-05T22:48:44.497Z,6.68
2022-10-05T22:51:12.276Z,7.07
2022-10-05T22:53:39.166Z,8.13
2022-10-05T22:56:11.012Z,6.75
2022-10-05T22:58:38.629Z,6.68
2022-10-05T23:01:08.249Z,6.32
2022-10-05T23:03:35.432Z,7.13
2022-10-05T23:06:05.037Z,6.78
2022-10-05T23:08:32.844Z,6.43
2022-10-05T23:11:04.269Z,8.38
2022-10-05T23:13:31.601Z,9.30
2022-10-05T23:15:58.424Z,10.00
2022-10-05T23:18:25.743Z,11.88
2022-10-05T23:20:57.246Z,9.52
2022-10-05T23:23:24.140Z,7.03
2022-10-05T23:25:51.309Z,6.60
2022-10-05T23:28:18.388Z,6.22
2022-10-05T23:30:45.325Z,6.20
2022-10-05T23:33:12.266Z,5.70
2022-10-05T23:35:39.235Z,6.63
2022-10-05T23:38:06.143Z,6.80
2022-10-05T23:40:33.208Z,6.38
2022-10-05T23:43:00.873Z,6.13
2022-10-05T23:45:27.718Z,6.68
2022-10-05T23:47:54.492Z,6.30
2022-10-05T23:50:24.885Z,6.35
2022-10-05T23:52:51.779Z,7.10
2022-10-05T23:55:18.593Z,7.50
2022-10-05T23:57:45.631Z,9.32
